Time;durP1;ratioP1;P1;durP2;ratioP2;P2;SDS_P1;SDS_P2;PMS_P1;PMS_P2;Temp;Humidity;BMP_temperature;BMP_pressure;BME280_temperature;BME280_humidity;BME280_pressure;Samples;Min_cycle;Max_cycle;Signal;HPM_P1;HPM_P2
2023/04/13 00:00:15;;;;;;;0.30;0.20;;;;;;;7.65;48.75;94527.97;5135520;27;20445;-66
2023/04/13 00:02:44;;;;;;;0.30;0.30;;;;;;;8.09;50.28;94617.78;5135152;27;20437;-66
2023/04/13 00:05:12;;;;;;;0.50;0.50;;;;;;;8.19;49.63;94620.38;5134776;27;20450;-66
2023/04/13 00:07:42;;;;;;;0.40;0.20;;;;;;;8.21;51.17;94619.03;5136194;27;20425;-66
2023/04/13 00:10:10;;;;;;;0.40;0.30;;;;;;;8.29;49.90;94609.78;5138534;27;20547;-67
2023/04/13 00:12:41;;;;;;;0.30;0.20;;;;;;;8.00;49.73;94617.53;5135774;27;20478;-66
2023/04/13 00:15:10;;;;;;;0.30;0.20;;;;;;;8.25;50.37;94608.69;5134668;27;20437;-67
2023/04/13 00:17:38;;;;;;;0.33;0.27;;;;;;;7.93;49.72;94611.75;5134543;27;20861;-66
2023/04/13 00:20:11;;;;;;;0.30;0.20;;;;;;;7.98;50.73;94603.03;5134767;27;20435;-66
2023/04/13 00:22:41;;;;;;;0.40;0.30;;;;;;;8.22;50.06;94604.00;5134914;27;20444;-66
2023/04/13 00:25:10;;;;;;;0.30;0.20;;;;;;;8.11;49.52;94613.00;5134539;27;20473;-65
2023/04/13 00:27:41;;;;;;;0.30;0.20;;;;;;;7.38;47.89;94478.25;5134691;27;20941;-66
2023/04/13 00:30:11;;;;;;;0.30;0.20;;;;;;;8.23;47.43;94614.25;5134413;27;20446;-65
2023/04/13 00:32:41;;;;;;;0.30;0.20;;;;;;;8.17;47.34;94612.69;5134779;27;20916;-66
2023/04/13 00:35:11;;;;;;;0.33;0.30;;;;;;;8.01;47.19;94618.31;5134390;27;20460;-66
2023/04/13 00:37:41;;;;;;;0.30;0.20;;;;;;;7.94;47.30;94578.25;5133854;27;20470;-66
2023/04/13 00:40:12;;;;;;;0.30;0.20;;;;;;;8.24;47.48;94622.97;5133366;27;20441;-65
2023/04/13 00:42:43;;;;;;;0.30;0.20;;;;;;;8.14;47.19;94621.19;5134562;27;20506;-65
2023/04/13 00:45:12;;;;;;;0.30;0.20;;;;;;;8.29;48.49;94626.44;5134242;27;20588;-65
2023/04/13 00:47:45;;;;;;;0.30;0.20;;;;;;;7.93;49.35;94574.81;5133879;27;20437;-65
2023/04/13 00:50:14;;;;;;;0.30;0.30;;;;;;;8.17;48.19;94607.41;5133422;27;20510;-65
2023/04/13 00:52:42;;;;;;;0.30;0.20;;;;;;;7.59;48.10;94611.56;5134593;27;20439;-65
2023/04/13 00:55:13;;;;;;;0.30;0.20;;;;;;;7.85;47.62;94629.97;5134073;27;20442;-65
2023/04/13 00:57:43;;;;;;;0.30;0.20;;;;;;;7.85;47.34;94606.22;5134218;27;20476;-65
2023/04/13 01:00:13;;;;;;;0.30;0.20;;;;;;;8.17;47.38;94628.53;5134082;27;20449;-65
2023/04/13 01:02:42;;;;;;;0.30;0.20;;;;;;;7.96;48.17;94627.06;5133977;27;20471;-65
2023/04/13 01:05:13;;;;;;;0.30;0.30;;;;;;;7.76;47.90;94636.88;5134481;27;20435;-65
2023/04/13 01:07:54;;;;;;;0.30;0.20;;;;;;;7.41;49.29;94641.13;5133765;27;20425;-65
2023/04/13 01:10:27;;;;;;;0.33;0.23;;;;;;;6.84;50.58;94645.88;5133997;27;20478;-65
2023/04/13 01:13:08;;;;;;;0.30;0.30;;;;;;;7.09;50.20;94648.53;5106688;27;20432;-65
2023/04/13 01:15:41;;;;;;;0.30;0.20;;;;;;;7.36;50.41;94646.41;5133940;27;20437;-66
2023/04/13 01:18:14;;;;;;;0.30;0.20;;;;;;;7.66;50.94;94642.97;5134028;27;20501;-66
2023/04/13 01:21:03;;;;;;;0.30;0.20;;;;;;;7.40;51.22;94646.69;5133440;27;20437;-66
2023/04/13 01:23:47;;;;;;;0.37;0.30;;;;;;;6.53;50.81;94608.19;5133139;27;20436;-65
2023/04/13 01:26:16;;;;;;;0.40;0.30;;;;;;;6.93;51.02;94646.97;5133837;27;20445;-65
2023/04/13 01:28:47;;;;;;;0.30;0.20;;;;;;;7.35;50.84;94658.03;5132943;27;20421;-65
2023/04/13 01:31:17;;;;;;;0.30;0.27;;;;;;;7.34;53.64;94630.06;5133484;27;20526;-65
2023/04/13 01:33:47;;;;;;;0.50;0.50;;;;;;;7.42;52.76;94655.13;5133255;27;20521;-65
2023/04/13 01:36:15;;;;;;;0.43;0.30;;;;;;;6.95;51.03;94661.44;5133325;27;20449;-65
2023/04/13 01:38:44;;;;;;;0.30;0.20;;;;;;;7.22;53.65;94655.13;5132308;27;20468;-66
2023/04/13 01:41:13;;;;;;;0.30;0.20;;;;;;;7.22;50.45;94657.75;5133161;27;20442;-65
2023/04/13 01:43:41;;;;;;;0.30;0.20;;;;;;;7.36;49.91;94672.78;5132716;27;20532;-65
2023/04/13 01:46:13;;;;;;;0.30;0.20;;;;;;;7.06;49.86;94678.03;5133602;27;20431;-66
2023/04/13 01:48:47;;;;;;;0.30;0.20;;;;;;;6.87;50.91;94669.88;5106983;27;20831;-66
2023/04/13 01:51:18;;;;;;;0.37;0.27;;;;;;;6.30;51.45;94672.59;5133112;27;20532;-65
2023/04/13 01:53:52;;;;;;;0.30;0.20;;;;;;;6.59;50.72;94674.81;5133497;27;20447;-66
2023/04/13 01:56:21;;;;;;;0.30;0.20;;;;;;;6.71;50.53;94646.38;5132475;27;20957;-65
2023/04/13 01:58:56;;;;;;;0.30;0.20;;;;;;;7.02;50.90;94679.63;5132720;27;20481;-65
2023/04/13 02:01:26;;;;;;;0.43;0.30;;;;;;;6.02;51.95;94638.06;5131463;27;20528;-66
2023/04/13 02:03:55;;;;;;;0.30;0.20;;;;;;;6.09;52.88;94681.47;5132647;27;20441;-66
2023/04/13 02:06:24;;;;;;;0.30;0.30;;;;;;;5.72;54.11;94696.47;5132198;27;20432;-65
2023/04/13 02:08:53;;;;;;;0.40;0.27;;;;;;;6.20;54.19;94704.13;5132356;27;20526;-65
2023/04/13 02:11:22;;;;;;;0.30;0.20;;;;;;;6.17;52.87;94696.75;5132331;27;20427;-66
2023/04/13 02:13:50;;;;;;;0.50;0.43;;;;;;;5.91;53.72;94684.53;5131748;27;20465;-66
2023/04/13 02:16:18;;;;;;;0.30;0.20;;;;;;;6.23;52.78;94669.44;5132539;27;20522;-66
2023/04/13 02:18:48;;;;;;;0.40;0.27;;;;;;;6.60;52.80;94693.00;5132086;27;20475;-65
2023/04/13 02:21:16;;;;;;;0.30;0.20;;;;;;;6.79;51.17;94683.53;5132377;27;20837;-65
2023/04/13 02:23:45;;;;;;;0.30;0.20;;;;;;;6.55;51.84;94706.13;5131494;27;20465;-65
2023/04/13 02:26:15;;;;;;;0.30;0.30;;;;;;;5.41;54.18;94642.16;5131870;27;20528;-65
2023/04/13 02:28:44;;;;;;;0.30;0.20;;;;;;;6.10;53.01;94654.13;5131429;27;20502;-64
2023/04/13 02:31:15;;;;;;;0.30;0.20;;;;;;;6.55;56.13;94710.59;5132500;27;20988;-65
2023/04/13 02:33:45;;;;;;;0.30;0.20;;;;;;;5.81;52.96;94631.88;5132579;27;20450;-65
2023/04/13 02:36:16;;;;;;;0.60;0.53;;;;;;;5.59;54.14;94561.03;5132145;27;20443;-65
2023/04/13 02:38:44;;;;;;;0.30;0.20;;;;;;;6.44;52.58;94704.50;5132049;27;20516;-65
2023/04/13 02:41:13;;;;;;;0.30;0.20;;;;;;;6.07;52.26;94654.63;5131939;27;20441;-65
2023/04/13 02:43:42;;;;;;;0.30;0.30;;;;;;;6.84;55.85;94706.47;5131217;28;20436;-65
2023/04/13 02:46:10;;;;;;;0.40;0.30;;;;;;;5.88;53.11;94706.09;5118366;28;20438;-64
2023/04/13 02:48:39;;;;;;;0.77;0.77;;;;;;;6.24;54.69;94715.75;5132087;28;20444;-66
2023/04/13 02:51:08;;;;;;;0.40;0.37;;;;;;;6.27;53.13;94707.31;5132602;28;20440;-65
2023/04/13 02:53:38;;;;;;;0.30;0.20;;;;;;;6.15;52.31;94709.38;5120650;28;20488;-65
2023/04/13 02:56:08;;;;;;;0.30;0.20;;;;;;;5.99;53.23;94715.63;5129044;28;20471;-65
2023/04/13 02:58:36;;;;;;;0.30;0.20;;;;;;;5.89;54.23;94718.19;5121192;28;20494;-65
2023/04/13 03:01:05;;;;;;;0.40;0.30;;;;;;;5.27;55.35;94710.09;5131782;28;20961;-65
2023/04/13 03:03:33;;;;;;;0.40;0.30;;;;;;;5.21;55.81;94729.50;5132163;28;20434;-65
2023/04/13 03:06:02;;;;;;;0.30;0.20;;;;;;;5.59;55.11;94736.38;5131616;28;20941;-65
2023/04/13 03:08:30;;;;;;;0.43;0.40;;;;;;;5.53;55.10;94730.28;5132521;27;20440;-66
2023/04/13 03:11:00;;;;;;;0.37;0.37;;;;;;;5.72;54.21;94733.28;5131741;27;20436;-66
2023/04/13 03:13:28;;;;;;;0.30;0.20;;;;;;;5.76;54.04;94729.13;5135634;27;20447;-66
2023/04/13 03:15:59;;;;;;;0.30;0.20;;;;;;;5.75;53.73;94733.59;5135798;27;20428;-65
2023/04/13 03:18:27;;;;;;;0.40;0.40;;;;;;;5.62;53.93;94743.72;5136405;27;20477;-65
2023/04/13 03:20:56;;;;;;;0.40;0.30;;;;;;;5.80;53.26;94735.44;5135850;27;20431;-65
2023/04/13 03:23:24;;;;;;;0.50;0.50;;;;;;;5.47;54.77;94741.00;5135788;27;20458;-65
2023/04/13 03:25:52;;;;;;;0.47;0.47;;;;;;;5.45;54.17;94748.34;5136088;27;20468;-65
2023/04/13 03:28:22;;;;;;;0.87;0.87;;;;;;;5.55;54.06;94743.97;5135864;27;20446;-65
2023/04/13 03:30:50;;;;;;;1.03;1.03;;;;;;;5.37;54.47;94748.78;5109734;27;20435;-65
2023/04/13 03:33:20;;;;;;;0.37;0.30;;;;;;;5.29;54.90;94749.28;5135922;27;20869;-63
2023/04/13 03:35:48;;;;;;;0.80;0.80;;;;;;;5.40;54.21;94719.41;5135163;27;20503;-64
2023/04/13 03:38:16;;;;;;;0.50;0.47;;;;;;;5.43;54.30;94690.00;5135359;27;20518;-63
2023/04/13 03:40:45;;;;;;;0.50;0.40;;;;;;;5.32;55.18;94754.00;5135629;27;20963;-63
2023/04/13 03:43:13;;;;;;;0.50;0.40;;;;;;;5.24;55.43;94765.75;5135148;27;21064;-63
2023/04/13 03:45:43;;;;;;;0.73;0.73;;;;;;;5.12;56.19;94747.53;5135915;27;20518;-64
2023/04/13 03:48:11;;;;;;;0.73;0.73;;;;;;;5.42;55.63;94770.66;5135054;27;20432;-63
2023/04/13 03:50:39;;;;;;;0.40;0.30;;;;;;;5.61;54.33;94769.25;5135706;27;20445;-63
2023/04/13 03:53:08;;;;;;;0.30;0.20;;;;;;;5.75;53.97;94769.59;5135087;27;20427;-63
2023/04/13 03:55:36;;;;;;;0.30;0.20;;;;;;;5.62;53.56;94762.13;5135091;27;20435;-63
2023/04/13 03:58:06;;;;;;;0.40;0.40;;;;;;;5.00;56.01;94773.16;5134463;27;20459;-64
2023/04/13 04:00:34;;;;;;;0.67;0.67;;;;;;;4.65;56.88;94785.13;5134244;27;20527;-63
2023/04/13 04:03:04;;;;;;;1.03;1.03;;;;;;;4.44;58.02;94784.88;5134658;27;20434;-63
2023/04/13 04:05:32;;;;;;;0.60;0.60;;;;;;;3.70;60.35;94746.09;5135191;27;20432;-63
2023/04/13 04:08:01;;;;;;;0.30;0.30;;;;;;;4.02;60.53;94794.28;5134803;27;20443;-63
2023/04/13 04:10:29;;;;;;;0.87;0.83;;;;;;;4.41;59.85;94787.97;5134585;27;20472;-62
2023/04/13 04:12:58;;;;;;;10.77;0.40;;;;;;;3.94;61.09;94793.88;5108021;27;20494;-62
2023/04/13 04:15:26;;;;;;;0.87;0.47;;;;;;;4.26;61.20;94789.59;5134734;27;20903;-62
2023/04/13 04:17:54;;;;;;;0.50;0.50;;;;;;;4.68;59.45;94795.91;5126595;27;20444;-62
2023/04/13 04:20:24;;;;;;;0.33;0.30;;;;;;;4.23;60.70;94797.94;5129342;27;20566;-62
2023/04/13 04:22:53;;;;;;;1.93;1.83;;;;;;;4.27;60.65;94773.66;5134451;27;20535;-62
2023/04/13 04:25:21;;;;;;;0.30;0.20;;;;;;;4.78;59.52;94803.88;5133340;27;20839;-61
2023/04/13 04:27:51;;;;;;;2.53;0.70;;;;;;;4.81;59.39;94808.66;5134974;27;20442;-61
2023/04/13 04:30:20;;;;;;;0.40;0.40;;;;;;;4.86;58.59;94800.03;5134405;27;21016;-61
2023/04/13 04:32:51;;;;;;;0.60;0.57;;;;;;;4.33;60.30;94805.97;5133855;27;20548;-61
2023/04/13 04:35:20;;;;;;;0.77;0.77;;;;;;;4.77;58.93;94810.19;5134785;27;20857;-61
2023/04/13 04:37:50;;;;;;;1.03;0.83;;;;;;;4.40;59.61;94822.34;5134823;27;20435;-62
2023/04/13 04:40:19;;;;;;;1.30;1.30;;;;;;;4.40;60.73;94824.97;5133510;27;20520;-61
2023/04/13 04:42:47;;;;;;;0.30;0.30;;;;;;;4.96;59.11;94824.56;5134682;27;20541;-61
2023/04/13 04:45:15;;;;;;;0.47;0.47;;;;;;;5.50;57.36;94819.34;5134372;27;20430;-61
2023/04/13 04:47:43;;;;;;;0.40;0.30;;;;;;;5.56;57.18;94823.63;5133657;27;20449;-61
2023/04/13 04:50:13;;;;;;;1.17;1.13;;;;;;;5.32;55.59;94756.63;5132709;27;20531;-61
2023/04/13 04:52:41;;;;;;;0.40;0.30;;;;;;;5.98;54.95;94827.13;5133220;27;20441;-61
2023/04/13 04:55:11;;;;;;;0.40;0.30;;;;;;;5.27;55.89;94796.00;5133720;27;20440;-62
2023/04/13 04:57:40;;;;;;;0.30;0.20;;;;;;;6.09;54.49;94822.75;5134886;27;20437;-60
2023/04/13 05:00:14;;;;;;;0.40;0.37;;;;;;;6.08;54.99;94813.25;5134209;27;20474;-61
2023/04/13 05:02:42;;;;;;;1.33;1.33;;;;;;;6.37;53.82;94819.75;5133350;27;20423;-62
2023/04/13 05:05:11;;;;;;;0.40;0.30;;;;;;;6.12;55.05;94817.75;5134028;27;20472;-63
2023/04/13 05:07:40;;;;;;;0.60;0.60;;;;;;;6.06;55.08;94816.16;5134064;27;20440;-62
2023/04/13 05:10:09;;;;;;;0.40;0.30;;;;;;;5.86;54.67;94797.59;5134004;27;20439;-61
2023/04/13 05:12:39;;;;;;;0.60;0.60;;;;;;;6.44;53.62;94832.69;5133475;27;20878;-61
2023/04/13 05:15:08;;;;;;;0.30;0.20;;;;;;;6.15;53.63;94777.78;5133611;27;20471;-61
2023/04/13 05:17:37;;;;;;;0.30;0.30;;;;;;;2.33;52.01;94152.09;5133630;27;20767;-60
2023/04/13 05:20:06;;;;;;;0.40;0.30;;;;;;;6.91;52.93;94828.97;5133398;27;20479;-60
2023/04/13 05:22:36;;;;;;;2.60;1.30;;;;;;;5.16;55.47;94750.47;5133232;27;20430;-60
2023/04/13 05:25:05;;;;;;;11.20;1.93;;;;;;;5.42;56.87;94833.72;5132345;27;20598;-60
2023/04/13 05:27:34;;;;;;;12.13;2.90;;;;;;;5.33;58.17;94835.22;5133132;27;20474;-61
2023/04/13 05:30:07;;;;;;;0.60;0.60;;;;;;;5.14;57.32;94769.09;5131470;27;20521;-60
2023/04/13 05:32:36;;;;;;;1.80;1.57;;;;;;;6.16;56.38;94834.63;5132533;27;20535;-60
2023/04/13 05:35:05;;;;;;;0.40;0.30;;;;;;;5.86;56.31;94739.75;5130686;27;20494;-61
2023/04/13 05:37:34;;;;;;;0.30;0.20;;;;;;;6.91;54.77;94821.06;5130884;27;20453;-60
2023/04/13 05:40:07;;;;;;;0.60;0.60;;;;;;;5.80;55.50;94696.00;5130702;27;20499;-60
2023/04/13 05:42:45;;;;;;;1.17;1.07;;;;;;;5.23;55.31;94634.69;5131575;27;20482;-60
2023/04/13 05:45:15;;;;;;;4.57;1.00;;;;;;;6.07;55.26;94759.06;5130225;27;20436;-60
2023/04/13 05:47:44;;;;;;;0.37;0.30;;;;;;;6.72;55.06;94830.47;5131126;27;20443;-60
2023/04/13 05:50:13;;;;;;;0.50;0.50;;;;;;;7.29;53.99;94833.03;5133085;27;20448;-60
2023/04/13 05:52:41;;;;;;;0.40;0.40;;;;;;;7.53;53.43;94818.34;5133529;27;20868;-59
2023/04/13 05:55:10;;;;;;;0.40;0.40;;;;;;;8.37;51.30;94824.94;5132961;27;20440;-60
2023/04/13 05:57:39;;;;;;;0.30;0.20;;;;;;;8.72;49.77;94798.44;5133312;27;20440;-60
2023/04/13 06:00:09;;;;;;;1.13;1.13;;;;;;;8.23;50.65;94825.44;5133049;27;20992;-61
2023/04/13 06:02:40;;;;;;;0.50;0.40;;;;;;;8.56;51.17;94826.72;5132673;27;20442;-60
2023/04/13 06:05:12;;;;;;;0.50;0.50;;;;;;;8.96;49.22;94820.53;5133393;27;20462;-61
2023/04/13 06:07:43;;;;;;;0.40;0.30;;;;;;;9.49;48.33;94819.72;5133043;27;20440;-60
2023/04/13 06:10:13;;;;;;;4.07;0.40;;;;;;;10.35;46.62;94831.56;5132630;27;20435;-59
2023/04/13 06:12:41;;;;;;;5.77;1.20;;;;;;;10.90;46.53;94822.22;5132548;27;20442;-59
2023/04/13 06:15:10;;;;;;;0.37;0.27;;;;;;;11.60;44.97;94825.84;5132567;27;20435;-60
2023/04/13 06:17:40;;;;;;;0.40;0.30;;;;;;;11.91;45.03;94824.34;5132393;27;20442;-60
2023/04/13 06:20:10;;;;;;;0.70;0.70;;;;;;;10.96;44.92;94808.63;5132831;27;20471;-60
2023/04/13 06:22:38;;;;;;;1.43;1.33;;;;;;;10.33;45.28;94815.94;5133051;27;20462;-60
2023/04/13 06:25:09;;;;;;;2.30;2.20;;;;;;;10.37;45.75;94781.72;5132162;27;20537;-61
2023/04/13 06:27:38;;;;;;;0.40;0.30;;;;;;;11.36;44.52;94810.75;5133045;27;20435;-61
2023/04/13 06:30:08;;;;;;;0.93;0.93;;;;;;;12.35;43.17;94806.09;5132645;27;20466;-60
2023/04/13 06:32:36;;;;;;;0.40;0.30;;;;;;;12.49;41.86;94801.59;5132397;27;20467;-60
2023/04/13 06:35:07;;;;;;;0.50;0.50;;;;;;;12.37;40.41;94758.75;5132090;27;20438;-61
2023/04/13 06:37:37;;;;;;;0.50;0.40;;;;;;;12.54;41.17;94801.50;5132451;27;20557;-61
2023/04/13 06:40:11;;;;;;;0.37;0.30;;;;;;;13.06;40.51;94812.75;5131971;27;20463;-62
2023/04/13 06:42:39;;;;;;;0.33;0.23;;;;;;;14.00;39.17;94797.69;5132698;27;20630;-61
2023/04/13 06:45:10;;;;;;;1.17;0.40;;;;;;;13.43;38.90;94777.16;5131550;28;20430;-60
2023/04/13 06:47:39;;;;;;;0.83;0.83;;;;;;;12.78;39.67;94790.69;5137330;27;20469;-61
2023/04/13 06:50:12;;;;;;;1.17;1.17;;;;;;;13.56;39.38;94798.41;5139052;27;20938;-60
2023/04/13 06:52:43;;;;;;;0.40;0.30;;;;;;;13.86;38.33;94765.00;5138911;27;20441;-60
2023/04/13 06:55:11;;;;;;;1.60;0.47;;;;;;;14.86;37.37;94784.84;5139104;27;20474;-60
2023/04/13 06:57:40;;;;;;;0.77;0.77;;;;;;;14.49;37.41;94799.44;5139227;27;20542;-62
2023/04/13 07:00:10;;;;;;;0.37;0.27;;;;;;;15.01;37.33;94806.56;5138445;27;20926;-62
2023/04/13 07:02:56;;;;;;;1.27;1.17;;;;;;;14.18;36.29;94771.94;5138936;27;20462;-63
2023/04/13 07:05:27;;;;;;;1.43;1.40;;;;;;;14.34;36.76;94759.84;5138050;27;20465;-63
2023/04/13 07:07:55;;;;;;;0.40;0.40;;;;;;;15.58;36.08;94799.38;5138549;27;20845;-63
2023/04/13 07:10:24;;;;;;;0.40;0.40;;;;;;;16.10;36.89;94786.78;5138996;27;20457;-62
2023/04/13 07:12:52;;;;;;;7.30;0.60;;;;;;;16.29;34.94;94759.72;5139196;27;20527;-63
2023/04/13 07:15:21;;;;;;;2.30;1.00;;;;;;;16.41;34.41;94789.25;5138187;27;20964;-64
2023/04/13 07:17:51;;;;;;;0.73;0.73;;;;;;;17.09;34.81;94788.25;5138803;27;20495;-56
2023/04/13 07:20:19;;;;;;;0.40;0.23;;;;;;;17.39;32.60;94781.00;5138460;27;20435;-72
2023/04/13 07:22:49;;;;;;;0.60;0.50;;;;;;;16.36;31.04;94789.41;5140319;27;20447;-73
2023/04/13 07:25:17;;;;;;;0.40;0.30;;;;;;;16.71;32.96;94780.22;5139423;27;20497;-70
2023/04/13 07:27:46;;;;;;;0.50;0.50;;;;;;;17.19;32.20;94768.34;5139091;27;20943;-69
2023/04/13 07:30:15;;;;;;;0.40;0.23;;;;;;;17.69;31.20;94750.41;5139053;27;20438;-67
2023/04/13 07:32:43;;;;;;;0.40;0.30;;;;;;;17.98;29.55;94782.50;5139008;27;20438;-69
2023/04/13 07:35:12;;;;;;;3.63;0.40;;;;;;;17.61;29.73;94783.41;5138860;27;20946;-69
2023/04/13 07:37:41;;;;;;;1.23;0.30;;;;;;;19.09;30.42;94750.25;5138504;27;20473;-69
2023/04/13 07:40:11;;;;;;;0.60;0.40;;;;;;;19.03;27.24;94777.34;5139005;27;21110;-68
2023/04/13 07:42:40;;;;;;;0.40;0.30;;;;;;;17.96;27.82;94768.63;5138827;27;20513;-66
2023/04/13 07:45:10;;;;;;;0.47;0.30;;;;;;;18.86;26.80;94769.50;5138663;27;20435;-65
2023/04/13 07:47:38;;;;;;;0.50;0.40;;;;;;;18.64;26.43;94761.84;5138898;27;20814;-64
2023/04/13 07:50:08;;;;;;;0.40;0.30;;;;;;;19.36;26.33;94753.03;5138854;27;20427;-63
2023/04/13 07:52:36;;;;;;;0.40;0.30;;;;;;;20.35;26.25;94749.75;5138559;27;20485;-63
2023/04/13 07:55:06;;;;;;;0.60;0.60;;;;;;;20.71;25.65;94747.66;5138070;27;20526;-63
2023/04/13 07:57:36;;;;;;;0.40;0.20;;;;;;;20.96;24.87;94740.19;5137856;27;20440;-62
2023/04/13 08:00:05;;;;;;;1.37;0.53;;;;;;;19.44;25.57;94736.03;5134653;27;20438;-61
2023/04/13 08:02:33;;;;;;;0.50;0.30;;;;;;;19.88;25.74;94750.38;5134625;27;20478;-60
2023/04/13 08:05:02;;;;;;;0.40;0.20;;;;;;;20.49;25.73;94742.84;5135424;27;20446;-61
2023/04/13 08:07:31;;;;;;;0.43;0.33;;;;;;;21.19;26.04;94735.78;5135058;27;20507;-61
2023/04/13 08:10:02;;;;;;;0.73;0.73;;;;;;;20.38;26.48;94732.94;5135445;27;20970;-60
2023/04/13 08:12:31;;;;;;;0.67;0.40;;;;;;;20.88;26.61;94733.84;5134711;27;20553;-60
2023/04/13 08:15:00;;;;;;;1.83;1.70;;;;;;;21.63;25.67;94724.81;5135218;27;20431;-60
2023/04/13 08:17:29;;;;;;;0.53;0.30;;;;;;;19.71;26.80;94731.81;5135003;27;20482;-61
2023/04/13 08:19:57;;;;;;;0.90;0.30;;;;;;;19.77;27.61;94722.41;5134918;27;20432;-61
2023/04/13 08:22:25;;;;;;;0.40;0.30;;;;;;;20.23;26.87;94729.88;5135098;27;20470;-60
2023/04/13 08:24:55;;;;;;;0.40;0.30;;;;;;;21.65;25.95;94711.75;5134692;27;21036;-60
2023/04/13 08:27:24;;;;;;;0.93;0.90;;;;;;;21.69;24.95;94712.59;5134656;27;20816;-60
2023/04/13 08:29:55;;;;;;;0.40;0.30;;;;;;;21.40;25.19;94668.84;5134984;27;20588;-59
2023/04/13 08:32:25;;;;;;;0.40;0.30;;;;;;;20.73;25.14;94715.78;5134292;27;20458;-66
2023/04/13 08:34:54;;;;;;;0.50;0.30;;;;;;;21.10;26.16;94713.59;5133638;27;20467;-66
2023/04/13 08:37:23;;;;;;;0.60;0.60;;;;;;;20.22;27.29;94722.09;5134675;27;20435;-66
2023/04/13 08:39:55;;;;;;;0.60;0.60;;;;;;;20.27;25.55;94674.22;5133791;27;20508;-64
2023/04/13 08:42:24;;;;;;;0.40;0.30;;;;;;;20.65;24.83;94703.25;5134621;27;20565;-64
2023/04/13 08:44:58;;;;;;;0.40;0.30;;;;;;;21.78;24.31;94697.75;5134422;27;20435;-64
2023/04/13 08:47:28;;;;;;;0.50;0.37;;;;;;;22.61;24.07;94694.38;5134656;27;20796;-64
2023/04/13 08:49:58;;;;;;;0.50;0.40;;;;;;;22.28;25.00;94610.47;5133999;27;20435;-64
2023/04/13 08:52:27;;;;;;;1.90;0.60;;;;;;;23.45;24.62;94671.78;5134247;27;20935;-64
2023/04/13 08:54:58;;;;;;;0.93;0.93;;;;;;;22.84;24.19;94653.88;5134555;27;20522;-64
2023/04/13 08:57:27;;;;;;;0.93;0.60;;;;;;;22.67;25.10;94665.16;5134148;27;20435;-64
2023/04/13 08:59:57;;;;;;;1.03;0.30;;;;;;;23.28;24.08;94676.53;5134412;27;20463;-63
2023/04/13 09:02:34;;;;;;;0.37;0.27;;;;;;;22.71;24.18;94674.88;5134223;27;20477;-62
2023/04/13 09:05:14;;;;;;;0.40;0.30;;;;;;;23.57;25.63;94680.44;5134219;27;20529;-63
2023/04/13 09:07:49;;;;;;;0.80;0.80;;;;;;;23.77;23.65;94676.44;5134262;27;20431;-63
2023/04/13 09:10:19;;;;;;;0.40;0.40;;;;;;;25.21;22.99;94670.94;5133691;27;20469;-63
2023/04/13 09:12:49;;;;;;;0.30;0.20;;;;;;;25.09;24.23;94663.09;5133803;27;20439;-64
2023/04/13 09:15:18;;;;;;;0.47;0.30;;;;;;;24.46;23.87;94664.06;5133729;27;20438;-68
2023/04/13 09:17:49;;;;;;;0.43;0.43;;;;;;;23.60;24.66;94619.41;5133154;27;21038;-65
2023/04/13 09:20:21;;;;;;;0.30;0.20;;;;;;;23.57;24.92;94672.34;5133643;27;20449;-64
2023/04/13 09:22:50;;;;;;;0.40;0.30;;;;;;;23.55;22.80;94655.69;5133672;27;20475;-64
2023/04/13 09:25:23;;;;;;;0.40;0.30;;;;;;;24.83;23.39;94655.94;5133381;27;20474;-66
2023/04/13 09:27:52;;;;;;;0.40;0.30;;;;;;;23.76;22.70;94661.34;5133860;27;20470;-65
2023/04/13 09:30:21;;;;;;;0.40;0.30;;;;;;;25.36;22.06;94628.38;5133538;27;20435;-64
2023/04/13 09:33:03;;;;;;;3.27;0.40;;;;;;;26.54;21.42;94645.53;5133444;27;20829;-66
2023/04/13 09:35:32;;;;;;;0.30;0.20;;;;;;;27.18;21.28;94645.56;5133216;27;20471;-65
2023/04/13 09:38:00;;;;;;;0.40;0.30;;;;;;;27.59;22.17;94643.94;5133722;27;20556;-65
2023/04/13 09:40:29;;;;;;;0.40;0.30;;;;;;;26.15;21.03;94591.13;5133848;27;20443;-65
2023/04/13 09:42:59;;;;;;;0.30;0.30;;;;;;;26.37;21.53;94635.41;5134512;27;20523;-66
2023/04/13 09:45:35;;;;;;;0.30;0.20;;;;;;;26.08;21.64;94645.41;5133976;27;20488;-67
2023/04/13 09:48:15;;;;;;;0.30;0.30;;;;;;;25.94;22.39;94629.06;5133446;27;20556;-66
2023/04/13 09:50:44;;;;;;;1.23;0.30;;;;;;;26.10;22.34;94626.78;5133434;27;20439;-65
2023/04/13 09:53:12;;;;;;;0.43;0.27;;;;;;;27.36;22.01;94636.19;5132775;27;20881;-64
2023/04/13 09:55:43;;;;;;;0.40;0.30;;;;;;;27.67;22.59;94626.44;5132752;27;20842;-64
2023/04/13 09:58:13;;;;;;;0.30;0.20;;;;;;;28.46;20.87;94624.91;5132604;27;20518;-64
2023/04/13 10:00:42;;;;;;;0.40;0.40;;;;;;;26.45;21.76;94623.41;5132638;27;20862;-64
2023/04/13 10:03:13;;;;;;;0.40;0.40;;;;;;;26.12;23.10;94627.22;5105719;27;20657;-65
2023/04/13 10:05:43;;;;;;;1.07;1.07;;;;;;;27.29;23.59;94619.13;5132121;27;20507;-63
2023/04/13 10:08:26;;;;;;;0.40;0.40;;;;;;;26.93;22.32;94618.38;5133362;27;20865;-63
2023/04/13 10:11:10;;;;;;;0.73;0.33;;;;;;;27.37;21.64;94616.00;5132377;27;20434;-62
2023/04/13 10:13:45;;;;;;;0.93;0.40;;;;;;;27.34;21.70;94605.88;5133325;27;20814;-63
2023/04/13 10:16:32;;;;;;;0.50;0.30;;;;;;;28.00;22.39;94603.34;5106400;27;20438;-63
2023/04/13 10:19:05;;;;;;;0.40;0.30;;;;;;;26.57;22.50;94559.72;5132910;27;20445;-63
2023/04/13 10:21:38;;;;;;;0.40;0.40;;;;;;;26.85;22.89;94557.78;5132110;27;21161;-63
2023/04/13 10:24:10;;;;;;;0.97;0.97;;;;;;;27.79;23.96;94587.09;5132308;27;20485;-62
2023/04/13 10:26:41;;;;;;;0.40;0.30;;;;;;;28.13;21.09;94579.94;5132464;27;20518;-63
2023/04/13 10:29:12;;;;;;;0.40;0.30;;;;;;;28.32;21.44;94582.16;5106020;27;20470;-65
2023/04/13 10:31:42;;;;;;;0.40;0.30;;;;;;;28.68;21.55;94566.31;5132338;27;20943;-64
2023/04/13 10:34:24;;;;;;;0.50;0.30;;;;;;;27.52;22.21;94519.53;5132659;27;20442;-63
2023/04/13 10:36:55;;;;;;;0.40;0.30;;;;;;;28.42;21.68;94577.78;5132145;27;20527;-63
2023/04/13 10:39:26;;;;;;;0.40;0.30;;;;;;;29.19;21.25;94565.47;5132861;27;20439;-63
2023/04/13 10:42:02;;;;;;;0.40;0.30;;;;;;;29.39;21.35;94560.97;5131888;27;20462;-63
2023/04/13 10:44:41;;;;;;;0.40;0.30;;;;;;;28.24;21.26;94572.47;5132267;27;20446;-63
2023/04/13 10:47:10;;;;;;;0.40;0.20;;;;;;;28.93;22.41;94556.75;5108681;28;20952;-64
2023/04/13 10:49:41;;;;;;;0.40;0.30;;;;;;;28.10;23.76;94556.22;5131862;28;20434;-63
2023/04/13 10:52:10;;;;;;;0.50;0.50;;;;;;;28.93;22.65;94554.03;5132065;27;20438;-63
2023/04/13 10:54:40;;;;;;;0.40;0.30;;;;;;;29.22;21.73;94551.78;5132277;28;20435;-63
2023/04/13 10:57:10;;;;;;;0.70;0.50;;;;;;;28.87;21.38;94539.25;5132431;27;20438;-64
2023/04/13 10:59:43;;;;;;;0.60;0.30;;;;;;;29.03;20.96;94543.41;5132085;28;20473;-64
2023/04/13 11:02:30;;;;;;;0.40;0.30;;;;;;;28.77;21.23;94503.91;5131558;27;20474;-63
2023/04/13 11:05:01;;;;;;;0.40;0.30;;;;;;;29.53;22.39;94536.22;5132138;28;20439;-64
2023/04/13 11:07:30;;;;;;;0.30;0.30;;;;;;;30.41;20.47;94532.31;5131339;28;20462;-64
2023/04/13 11:09:58;;;;;;;0.40;0.30;;;;;;;30.14;21.85;94523.34;5131973;27;20504;-63
2023/04/13 11:12:30;;;;;;;0.37;0.30;;;;;;;30.60;21.64;94533.59;5131725;28;21079;-62
2023/04/13 11:14:59;;;;;;;0.40;0.40;;;;;;;30.12;21.41;94526.50;5132027;28;20514;-64
2023/04/13 11:17:28;;;;;;;0.40;0.30;;;;;;;30.75;21.09;94523.97;5131566;27;20442;-64
2023/04/13 11:19:57;;;;;;;0.43;0.30;;;;;;;29.10;21.41;94464.97;5132432;28;20430;-65
2023/04/13 11:22:27;;;;;;;0.83;0.70;;;;;;;27.66;21.95;94526.84;5131760;28;20987;-67
2023/04/13 11:25:07;;;;;;;0.40;0.40;;;;;;;28.62;21.63;94524.28;5119880;27;20843;-67
2023/04/13 11:27:36;;;;;;;0.60;0.60;;;;;;;26.72;22.69;94526.69;5105734;28;20977;-66
2023/04/13 11:30:08;;;;;;;0.47;0.33;;;;;;;25.97;24.00;94532.47;5131737;28;20431;-65
2023/04/13 11:32:40;;;;;;;0.83;0.83;;;;;;;27.14;22.56;94525.88;5132490;27;20447;-66
2023/04/13 11:35:10;;;;;;;0.53;0.53;;;;;;;27.08;22.86;94522.78;5135434;27;20491;-66
2023/04/13 11:37:41;;;;;;;0.70;0.70;;;;;;;26.62;23.09;94447.88;5135717;27;20491;-66
2023/04/13 11:40:13;;;;;;;0.30;0.30;;;;;;;28.90;22.97;94459.34;5134888;27;20514;-66
2023/04/13 11:42:46;;;;;;;0.40;0.30;;;;;;;29.78;23.15;94490.28;5134995;27;20491;-65
2023/04/13 11:45:15;;;;;;;0.50;0.50;;;;;;;29.80;21.92;94482.47;5134570;27;20432;-66
2023/04/13 11:47:47;;;;;;;0.40;0.30;;;;;;;29.00;22.12;94457.66;5134528;27;20438;-67
2023/04/13 11:50:16;;;;;;;0.60;0.40;;;;;;;29.14;21.00;94484.03;5134619;27;21016;-68